createdAt,value
2019-05-29T00:01:10.579Z,100729.81
2019-05-29T00:03:38.254Z,100728.64
2019-05-29T00:06:08.151Z,100730.22
2019-05-29T00:08:37.754Z,100730.66
2019-05-29T00:11:08.024Z,100724.75
2019-05-29T00:13:38.288Z,100738.43
2019-05-29T00:16:08.287Z,100737.95
2019-05-29T00:18:37.871Z,100744.47
2019-05-29T00:21:08.286Z,100742.97
2019-05-29T00:23:38.012Z,100751.91
2019-05-29T00:26:08.296Z,100752.58
2019-05-29T00:28:37.858Z,100764.67
2019-05-29T00:31:07.699Z,100766.48
2019-05-29T00:33:37.325Z,100767.81
2019-05-29T00:36:06.814Z,100776.63
2019-05-29T00:38:36.288Z,100775.98
2019-05-29T00:41:06.746Z,100785.34
2019-05-29T00:43:36.420Z,100781.12
2019-05-29T00:46:05.915Z,100783.23
2019-05-29T00:48:35.403Z,100783.53
2019-05-29T00:51:04.991Z,100776.55
2019-05-29T00:53:34.519Z,100780.62
2019-05-29T00:56:03.997Z,100783.89
2019-05-29T00:58:33.655Z,100794.02
2019-05-29T01:01:23.199Z,100797.61
2019-05-29T01:03:53.393Z,100803.84
2019-05-29T01:06:23.313Z,100811.00
2019-05-29T01:08:54.414Z,100812.06
2019-05-29T01:11:23.926Z,100808.98
2019-05-29T01:13:53.385Z,100819.09
2019-05-29T01:16:23.046Z,100819.81
2019-05-29T01:18:52.550Z,100819.73
2019-05-29T01:21:22.229Z,100819.65
2019-05-29T01:23:51.684Z,100819.56
2019-05-29T01:26:40.510Z,100823.86
2019-05-29T01:29:09.976Z,100830.89
2019-05-29T01:31:39.471Z,100830.80
2019-05-29T01:34:08.995Z,100833.70
2019-05-29T01:36:38.557Z,100836.37
2019-05-29T01:39:08.609Z,100843.61
2019-05-29T01:41:38.163Z,100849.02
2019-05-29T01:44:07.700Z,100843.91
2019-05-29T01:46:37.198Z,100850.69
2019-05-29T01:49:06.661Z,100851.88
2019-05-29T01:51:36.161Z,100856.94
2019-05-29T01:54:06.132Z,100859.59
2019-05-29T01:56:35.574Z,100863.27
2019-05-29T01:59:05.271Z,100870.62
2019-05-29T02:01:34.888Z,100865.27
2019-05-29T02:04:04.494Z,100873.06
2019-05-29T02:06:34.049Z,100872.38
2019-05-29T02:09:05.075Z,100867.02
2019-05-29T02:11:34.624Z,100876.77
2019-05-29T02:14:04.166Z,100880.23
2019-05-29T02:16:33.654Z,100884.48
2019-05-29T02:19:03.157Z,100883.79
2019-05-29T02:21:32.614Z,100894.58
2019-05-29T02:24:02.193Z,100891.96
2019-05-29T02:26:31.670Z,100894.84
2019-05-29T02:29:01.125Z,100898.78
2019-05-29T02:31:30.678Z,100895.59
2019-05-29T02:34:00.130Z,100899.53
2019-05-29T02:36:29.623Z,100907.31
2019-05-29T02:38:59.154Z,100905.48
2019-05-29T02:41:29.929Z,100913.55
2019-05-29T02:43:59.471Z,100921.58
2019-05-29T02:46:30.144Z,100919.78
2019-05-29T02:48:59.726Z,100916.28
2019-05-29T02:51:30.424Z,100919.95
2019-05-29T02:54:00.080Z,100922.77
2019-05-29T02:56:31.296Z,100923.92
2019-05-29T02:59:00.890Z,100925.41
2019-05-29T03:01:31.719Z,100932.64
2019-05-29T03:04:01.327Z,100937.12
2019-05-29T03:06:32.349Z,100941.09
2019-05-29T03:09:05.049Z,100937.34
2019-05-29T03:11:35.082Z,100941.79
2019-05-29T03:14:04.870Z,100952.00
2019-05-29T03:16:35.020Z,100950.99
2019-05-29T03:19:04.741Z,100954.92
2019-05-29T03:21:34.820Z,100950.84
2019-05-29T03:24:04.611Z,100953.41
2019-05-29T03:26:35.103Z,100960.30
2019-05-29T03:29:04.953Z,100964.77
2019-05-29T03:31:39.625Z,100966.48
2019-05-29T03:34:05.969Z,100966.34
2019-05-29T03:36:41.984Z,100972.14
2019-05-29T03:39:07.825Z,100979.61
2019-05-29T03:41:39.024Z,100977.73
2019-05-29T03:44:10.424Z,100983.81
2019-05-29T03:46:45.199Z,100990.41
2019-05-29T03:49:11.082Z,100987.16
2019-05-29T03:51:40.658Z,100992.13
2019-05-29T03:54:10.108Z,100991.88
2019-05-29T03:56:39.664Z,100994.36
2019-05-29T03:59:09.120Z,100998.22
2019-05-29T04:01:38.606Z,100997.14
2019-05-29T04:04:08.086Z,101000.20
2019-05-29T04:06:37.762Z,101002.36
2019-05-29T04:09:07.907Z,101008.42
2019-05-29T04:11:38.341Z,101003.48
2019-05-29T04:14:08.144Z,101010.08
2019-05-29T04:16:58.641Z,101018.30
2019-05-29T04:19:11.208Z,101016.92
2019-05-29T04:21:42.217Z,101022.12
2019-05-29T04:24:12.138Z,101025.63
2019-05-29T04:26:41.937Z,101031.38
2019-05-29T04:29:11.997Z,101028.62
2019-05-29T04:31:41.453Z,101035.73
2019-05-29T04:34:10.984Z,101032.68
2019-05-29T04:36:40.482Z,101029.66
2019-05-29T04:39:09.990Z,101037.81
2019-05-29T04:41:39.468Z,101043.53
2019-05-29T04:44:08.910Z,101046.46
2019-05-29T04:46:40.508Z,101052.17
2019-05-29T04:49:09.636Z,101056.22
2019-05-29T04:51:40.631Z,101051.76
2019-05-29T04:54:10.201Z,101055.27
2019-05-29T04:56:39.650Z,101059.55
2019-05-29T04:59:09.301Z,101063.81
2019-05-29T05:01:39.289Z,101075.20
2019-05-29T05:04:08.868Z,101077.02
2019-05-29T05:06:39.241Z,101086.78
2019-05-29T05:09:09.354Z,101092.93
2019-05-29T05:11:39.643Z,101090.85
2019-05-29T05:14:09.482Z,101093.14
2019-05-29T05:16:39.974Z,101091.05
2019-05-29T05:19:09.544Z,101099.69
2019-05-29T05:21:40.166Z,101102.80
2019-05-29T05:24:09.755Z,101100.41
2019-05-29T05:26:40.347Z,101101.81
2019-05-29T05:29:10.184Z,101095.30
2019-05-29T05:31:40.834Z,101101.11
2019-05-29T05:34:10.453Z,101098.70
2019-05-29T05:36:41.033Z,101105.04
2019-05-29T05:39:10.573Z,101103.17
2019-05-29T05:41:41.073Z,101111.17
2019-05-29T05:44:10.596Z,101115.30
2019-05-29T05:46:41.291Z,101122.21
2019-05-29T05:49:10.871Z,101121.16
2019-05-29T05:51:44.181Z,101124.40
2019-05-29T05:54:11.688Z,101126.34
2019-05-29T05:56:41.810Z,101125.77
2019-05-29T05:59:11.383Z,101124.92
2019-05-29T06:01:42.091Z,101125.14
2019-05-29T06:04:11.771Z,101128.44
2019-05-29T06:06:42.356Z,101129.23
2019-05-29T06:09:11.924Z,101133.31
2019-05-29T06:11:42.591Z,101137.64
2019-05-29T06:14:12.161Z,101142.80
2019-05-29T06:16:42.762Z,101135.84
2019-05-29T06:19:12.429Z,101142.16
2019-05-29T06:22:01.276Z,101139.58
2019-05-29T06:24:30.740Z,101140.88
2019-05-29T06:27:00.236Z,101135.56
2019-05-29T06:29:30.330Z,101150.89
2019-05-29T06:31:59.833Z,101147.80
2019-05-29T06:34:29.302Z,101154.30
2019-05-29T06:36:58.818Z,101140.88
2019-05-29T06:39:28.290Z,101157.18
2019-05-29T06:41:57.821Z,101156.86
2019-05-29T06:44:27.424Z,101158.69
2019-05-29T06:46:57.074Z,101163.89
2019-05-29T06:49:27.436Z,101171.00
2019-05-29T06:51:56.908Z,101159.95
2019-05-29T06:54:29.186Z,101156.59
2019-05-29T06:56:59.511Z,101164.20
2019-05-29T06:59:29.014Z,101164.61
2019-05-29T07:01:58.487Z,101163.44
2019-05-29T07:04:27.983Z,101167.80
2019-05-29T07:06:57.505Z,101164.29
2019-05-29T07:09:27.161Z,101164.17
2019-05-29T07:11:57.271Z,101159.86
2019-05-29T07:14:26.937Z,101162.46
2019-05-29T07:16:56.587Z,101166.45
2019-05-29T07:19:45.085Z,101168.80
2019-05-29T07:21:57.262Z,101165.69
2019-05-29T07:24:26.730Z,101171.13
2019-05-29T07:26:56.267Z,101166.67
2019-05-29T07:29:25.779Z,101174.66
2019-05-29T07:31:55.272Z,101179.80
2019-05-29T07:34:24.738Z,101180.30
2019-05-29T07:36:54.264Z,101182.95
2019-05-29T07:39:23.724Z,101183.70
2019-05-29T07:41:53.207Z,101181.97
2019-05-29T07:44:22.687Z,101186.84
2019-05-29T07:46:52.186Z,101182.59
2019-05-29T07:49:35.835Z,101183.30
2019-05-29T07:51:52.914Z,101185.39
2019-05-29T07:54:22.393Z,101183.84
2019-05-29T07:57:11.224Z,101182.78
2019-05-29T07:59:40.699Z,101185.33
2019-05-29T08:02:10.230Z,101183.13
2019-05-29T08:04:40.914Z,101186.49
2019-05-29T08:07:10.568Z,101186.24
2019-05-29T08:09:41.284Z,101188.30
2019-05-29T08:12:10.880Z,101184.47
2019-05-29T08:14:41.717Z,101187.69
2019-05-29T08:17:11.436Z,101188.12
2019-05-29T08:19:56.974Z,101187.17
2019-05-29T08:22:12.339Z,101187.87
2019-05-29T08:24:42.604Z,101182.54
2019-05-29T08:27:12.159Z,101188.53
2019-05-29T08:29:42.596Z,101189.66
2019-05-29T08:32:12.152Z,101191.47
2019-05-29T08:34:42.989Z,101192.13
2019-05-29T08:37:12.667Z,101188.81
2019-05-29T08:39:43.402Z,101193.52
2019-05-29T08:42:23.522Z,101191.03
2019-05-29T08:44:45.393Z,101196.84
2019-05-29T08:47:14.986Z,101193.78
2019-05-29T08:49:48.038Z,101193.84
2019-05-29T08:52:15.733Z,101188.55
2019-05-29T08:54:46.022Z,101192.78
2019-05-29T08:57:15.662Z,101189.44
2019-05-29T08:59:46.323Z,101197.45
2019-05-29T09:02:15.922Z,101190.53
2019-05-29T09:04:47.788Z,101198.76
2019-05-29T09:07:16.605Z,101191.00
2019-05-29T09:09:46.979Z,101180.67
2019-05-29T09:12:16.551Z,101190.69
2019-05-29T09:14:46.024Z,101188.27
2019-05-29T09:17:16.850Z,101183.66
2019-05-29T09:19:46.772Z,101185.99
2019-05-29T09:22:16.516Z,101182.61
2019-05-29T09:24:46.178Z,101187.97
2019-05-29T09:27:16.999Z,101182.17
2019-05-29T09:29:46.507Z,101183.39
2019-05-29T09:32:17.054Z,101178.59
2019-05-29T09:34:48.283Z,101176.36
2019-05-29T09:37:18.930Z,101175.73
2019-05-29T09:39:48.558Z,101179.65
2019-05-29T09:42:19.960Z,101177.00
2019-05-29T09:44:49.333Z,101180.88
2019-05-29T09:47:20.188Z,101186.37
2019-05-29T09:49:50.304Z,101183.25
2019-05-29T09:52:19.798Z,101177.13
2019-05-29T09:54:49.369Z,101183.23
2019-05-29T09:57:18.938Z,101181.87
2019-05-29T09:59:48.509Z,101179.72
2019-05-29T10:02:18.094Z,101180.58
2019-05-29T10:04:47.623Z,101188.00
2019-05-29T10:07:17.101Z,101191.00
2019-05-29T10:09:46.570Z,101189.06
2019-05-29T10:12:16.240Z,101188.53
2019-05-29T10:14:46.074Z,101192.86
2019-05-29T10:17:15.669Z,101190.95
2019-05-29T10:19:45.127Z,101191.70
2019-05-29T10:22:14.639Z,101185.78
2019-05-29T10:24:44.127Z,101188.25
2019-05-29T10:27:13.714Z,101190.50
2019-05-29T10:29:43.180Z,101194.75
2019-05-29T10:32:12.953Z,101198.98
2019-05-29T10:34:42.464Z,101197.03
2019-05-29T10:37:11.919Z,101195.30
2019-05-29T10:39:42.654Z,101193.00
2019-05-29T10:42:12.351Z,101190.07
2019-05-29T10:44:42.949Z,101186.73
2019-05-29T10:47:12.433Z,101177.62
2019-05-29T10:49:43.442Z,101187.72
2019-05-29T10:52:16.309Z,101184.39
2019-05-29T10:54:44.180Z,101187.51
2019-05-29T10:57:13.653Z,101184.61
2019-05-29T10:59:43.143Z,101180.44
2019-05-29T11:02:12.655Z,101178.69
2019-05-29T11:04:42.208Z,101174.59
2019-05-29T11:07:11.658Z,101179.84
2019-05-29T11:09:44.846Z,101176.69
2019-05-29T11:12:12.511Z,101173.95
2019-05-29T11:14:41.992Z,101180.41
2019-05-29T11:17:11.597Z,101172.94
2019-05-29T11:19:41.068Z,101169.78
2019-05-29T11:22:25.191Z,101175.28
2019-05-29T11:24:42.019Z,101171.78
2019-05-29T11:27:11.560Z,101178.68
2019-05-29T11:29:41.113Z,101175.30
2019-05-29T11:32:10.713Z,101166.94
2019-05-29T11:34:40.167Z,101163.97
2019-05-29T11:37:09.673Z,101158.37
2019-05-29T11:39:39.248Z,101163.19
2019-05-29T11:42:08.769Z,101158.20
2019-05-29T11:44:38.263Z,101161.17
2019-05-29T11:47:07.739Z,101165.78
2019-05-29T11:49:37.355Z,101159.81
2019-05-29T11:52:23.703Z,101164.42
2019-05-29T11:54:38.140Z,101166.66
2019-05-29T11:57:07.758Z,101168.50
2019-05-29T11:59:37.245Z,101159.55
2019-05-29T12:02:06.875Z,101165.36
2019-05-29T12:04:36.370Z,101157.97
2019-05-29T12:07:05.895Z,101158.00
2019-05-29T12:09:35.563Z,101152.19
2019-05-29T12:12:05.402Z,101155.20
2019-05-29T12:14:57.632Z,101152.63
2019-05-29T12:17:06.254Z,101157.89
2019-05-29T12:19:35.765Z,101152.10
2019-05-29T12:22:05.443Z,101147.48
2019-05-29T12:24:35.011Z,101141.89
2019-05-29T12:27:04.743Z,101139.29
2019-05-29T12:29:34.206Z,101140.10
2019-05-29T12:32:08.230Z,101136.70
2019-05-29T12:34:34.946Z,101140.12
2019-05-29T12:37:04.397Z,101145.97
2019-05-29T12:39:34.030Z,101152.39
2019-05-29T12:42:03.770Z,101138.58
2019-05-29T12:44:33.429Z,101137.17
2019-05-29T12:47:04.243Z,101136.59
2019-05-29T12:49:34.074Z,101146.20
2019-05-29T12:52:07.683Z,101144.55
2019-05-29T12:54:35.074Z,101139.27
2019-05-29T12:57:04.641Z,101136.38
2019-05-29T12:59:34.167Z,101132.17
2019-05-29T13:02:04.752Z,101130.97
2019-05-29T13:05:05.213Z,101134.59
2019-05-29T13:07:05.604Z,101132.84
2019-05-29T13:09:35.255Z,101130.67
2019-05-29T13:12:04.976Z,101128.67
2019-05-29T13:14:34.517Z,101131.51
2019-05-29T13:17:05.218Z,101132.91
2019-05-29T13:19:34.852Z,101124.71
2019-05-29T13:22:06.258Z,101126.75
2019-05-29T13:24:35.690Z,101125.56
2019-05-29T13:27:06.044Z,101128.36
2019-05-29T13:29:35.978Z,101126.78
2019-05-29T13:32:07.337Z,101133.05
2019-05-29T13:34:37.213Z,101124.44
2019-05-29T13:37:08.059Z,101118.61
2019-05-29T13:39:37.950Z,101120.63
2019-05-29T13:42:11.705Z,101121.02
2019-05-29T13:44:38.697Z,101122.44
2019-05-29T13:47:08.610Z,101118.00
2019-05-29T13:49:38.197Z,101115.59
2019-05-29T13:52:11.873Z,101117.80
2019-05-29T13:54:38.927Z,101117.41
2019-05-29T13:57:08.761Z,101113.78
2019-05-29T13:59:38.406Z,101106.15
2019-05-29T14:02:08.752Z,101109.76
2019-05-29T14:04:39.217Z,101109.76
2019-05-29T14:07:08.997Z,101123.22
2019-05-29T14:09:38.489Z,101104.57
2019-05-29T14:12:09.383Z,101121.61
2019-05-29T14:14:39.056Z,101110.58
2019-05-29T14:17:08.863Z,101105.95
2019-05-29T14:19:38.583Z,101113.75
2019-05-29T14:22:09.223Z,101108.95
2019-05-29T14:24:38.842Z,101102.52
2019-05-29T14:27:09.666Z,101112.73
2019-05-29T14:29:39.349Z,101106.91
2019-05-29T14:32:09.268Z,101098.64
2019-05-29T14:34:38.869Z,101104.08
2019-05-29T14:37:09.757Z,101104.27
2019-05-29T14:39:39.440Z,101103.06
2019-05-29T14:42:10.090Z,101097.23
2019-05-29T14:44:39.830Z,101099.86
2019-05-29T14:47:10.224Z,101101.27
2019-05-29T14:49:39.877Z,101096.03
2019-05-29T14:52:11.266Z,101099.44
2019-05-29T14:54:42.510Z,101103.06
2019-05-29T14:57:24.494Z,101104.08
2019-05-29T14:59:43.299Z,101104.08
2019-05-29T15:02:21.627Z,101101.06
2019-05-29T15:04:44.113Z,101108.52
2019-05-29T15:07:14.003Z,101099.50
2019-05-29T15:09:43.606Z,101103.50
2019-05-29T15:12:14.300Z,101103.72
2019-05-29T15:14:43.913Z,101104.33
2019-05-29T15:17:15.174Z,101107.77
2019-05-29T15:19:44.720Z,101102.93
2019-05-29T15:22:15.866Z,101098.71
2019-05-29T15:25:00.851Z,101098.73
2019-05-29T15:27:16.764Z,101102.94
2019-05-29T15:29:46.288Z,101103.55
2019-05-29T15:32:16.677Z,101104.56
2019-05-29T15:34:46.565Z,101104.36
2019-05-29T15:37:18.638Z,101107.36
2019-05-29T15:39:47.256Z,101106.57
2019-05-29T15:42:17.057Z,101103.56
2019-05-29T15:44:46.624Z,101103.16
2019-05-29T15:47:17.206Z,101104.58
2019-05-29T15:49:46.829Z,101105.78
2019-05-29T15:52:17.404Z,101100.54
2019-05-29T15:54:47.070Z,101107.98
2019-05-29T15:57:17.297Z,101112.78
2019-05-29T15:59:46.856Z,101113.80
2019-05-29T16:02:17.819Z,101106.38
2019-05-29T16:04:47.491Z,101104.17
2019-05-29T16:07:18.142Z,101104.16
2019-05-29T16:09:47.910Z,101103.88
2019-05-29T16:12:18.818Z,101096.62
2019-05-29T16:14:48.613Z,101095.78
2019-05-29T16:17:19.128Z,101091.58
2019-05-29T16:19:48.878Z,101088.84
2019-05-29T16:22:19.015Z,101085.33
2019-05-29T16:24:48.678Z,101087.55
2019-05-29T16:27:18.213Z,101084.17
2019-05-29T16:29:47.785Z,101075.52
2019-05-29T16:32:17.831Z,101075.04
2019-05-29T16:34:47.384Z,101074.66
2019-05-29T16:37:17.393Z,101069.92
2019-05-29T16:39:47.013Z,101076.90
2019-05-29T16:42:16.476Z,101074.92
2019-05-29T16:44:45.983Z,101067.48
2019-05-29T16:47:16.507Z,101069.30
2019-05-29T16:49:46.534Z,101074.48
2019-05-29T16:52:16.812Z,101069.46
2019-05-29T16:54:46.500Z,101074.41
2019-05-29T16:57:17.107Z,101068.92
2019-05-29T16:59:46.731Z,101069.91
2019-05-29T17:02:17.784Z,101069.30
2019-05-29T17:04:47.411Z,101075.12
2019-05-29T17:07:18.087Z,101068.56
2019-05-29T17:09:47.681Z,101074.02
2019-05-29T17:12:18.340Z,101076.41
2019-05-29T17:14:47.983Z,101070.53
2019-05-29T17:17:18.640Z,101072.25
2019-05-29T17:19:48.208Z,101071.30
2019-05-29T17:22:18.858Z,101070.24
2019-05-29T17:24:48.500Z,101069.22
2019-05-29T17:27:18.708Z,101075.16
2019-05-29T17:29:48.803Z,101068.08
2019-05-29T17:32:18.939Z,101069.53
2019-05-29T17:34:48.379Z,101065.42
2019-05-29T17:37:19.042Z,101061.84
2019-05-29T17:39:48.664Z,101064.52
2019-05-29T17:42:18.252Z,101062.67
2019-05-29T17:44:47.801Z,101061.44
2019-05-29T17:47:17.777Z,101070.34
2019-05-29T17:49:47.357Z,101067.81
2019-05-29T17:52:17.699Z,101073.74
2019-05-29T17:54:47.227Z,101073.12
2019-05-29T17:57:18.135Z,101081.47
2019-05-29T17:59:47.837Z,101084.48
2019-05-29T18:02:18.101Z,101079.72
2019-05-29T18:04:47.657Z,101085.72
2019-05-29T18:07:18.273Z,101086.14
2019-05-29T18:09:47.897Z,101084.03
2019-05-29T18:12:19.041Z,101079.80
2019-05-29T18:14:48.735Z,101085.72
2019-05-29T18:17:19.594Z,101083.30
2019-05-29T18:19:49.531Z,101087.78
2019-05-29T18:22:19.575Z,101097.03
2019-05-29T18:24:49.588Z,101097.02
2019-05-29T18:27:19.834Z,101106.30
2019-05-29T18:29:49.476Z,101101.63
2019-05-29T18:32:18.941Z,101108.30
2019-05-29T18:34:51.744Z,101106.97
2019-05-29T18:37:20.116Z,101107.85
2019-05-29T18:39:49.589Z,101112.57
2019-05-29T18:42:20.347Z,101113.35
2019-05-29T18:44:50.080Z,101110.03
2019-05-29T18:47:20.958Z,101107.20
2019-05-29T18:49:50.469Z,101112.95
2019-05-29T18:52:20.038Z,101109.76
2019-05-29T18:54:49.552Z,101106.96
2019-05-29T18:57:19.104Z,101113.72
2019-05-29T18:59:48.614Z,101115.80
2019-05-29T19:02:18.216Z,101119.19
2019-05-29T19:04:47.728Z,101128.19
2019-05-29T19:07:17.293Z,101125.89
2019-05-29T19:09:46.804Z,101120.42
2019-05-29T19:12:16.346Z,101131.02
2019-05-29T19:14:45.961Z,101128.27
2019-05-29T19:17:15.489Z,101126.89
2019-05-29T19:19:45.208Z,101132.65
2019-05-29T19:22:14.780Z,101135.60
2019-05-29T19:24:44.243Z,101144.11
2019-05-29T19:27:27.971Z,101146.38
2019-05-29T19:29:45.032Z,101147.52
2019-05-29T19:32:14.592Z,101149.82
2019-05-29T19:34:44.163Z,101157.59
2019-05-29T19:37:13.644Z,101157.34
2019-05-29T19:39:43.092Z,101159.72
2019-05-29T19:42:12.659Z,101175.30
2019-05-29T19:44:42.108Z,101175.80
2019-05-29T19:47:11.826Z,101175.42
2019-05-29T19:49:41.324Z,101181.09
2019-05-29T19:52:10.889Z,101187.89
2019-05-29T19:54:40.421Z,101187.98
2019-05-29T19:57:09.903Z,101195.23
2019-05-29T19:59:39.391Z,101194.72
2019-05-29T20:02:09.051Z,101196.63
2019-05-29T20:04:38.543Z,101198.98
2019-05-29T20:07:07.994Z,101199.70
2019-05-29T20:09:37.666Z,101204.50
2019-05-29T20:12:07.290Z,101204.52
2019-05-29T20:14:37.976Z,101205.34
2019-05-29T20:17:07.718Z,101201.76
2019-05-29T20:19:39.640Z,101206.52
2019-05-29T20:22:08.465Z,101206.17
2019-05-29T20:24:39.054Z,101206.41
2019-05-29T20:27:08.706Z,101209.67
2019-05-29T20:29:38.554Z,101202.97
2019-05-29T20:32:08.239Z,101200.44
2019-05-29T20:34:38.894Z,101210.41
2019-05-29T20:37:08.531Z,101212.03
2019-05-29T20:39:38.465Z,101211.91
2019-05-29T20:42:08.197Z,101218.06
2019-05-29T20:44:38.743Z,101221.98
2019-05-29T20:47:08.501Z,101221.66
2019-05-29T20:49:38.099Z,101215.73
2019-05-29T20:52:07.634Z,101212.97
2019-05-29T20:54:37.665Z,101224.30
2019-05-29T20:57:13.035Z,101216.67
2019-05-29T20:59:42.985Z,101223.72
2019-05-29T21:02:12.685Z,101218.06
2019-05-29T21:04:42.802Z,101219.22
2019-05-29T21:07:12.480Z,101221.77
2019-05-29T21:09:43.198Z,101223.84
2019-05-29T21:12:13.034Z,101222.78
2019-05-29T21:14:44.635Z,101218.98
2019-05-29T21:17:13.959Z,101225.00
2019-05-29T21:19:44.675Z,101232.27
2019-05-29T21:22:14.305Z,101225.46
2019-05-29T21:24:49.642Z,101234.70
2019-05-29T21:27:15.219Z,101225.92
2019-05-29T21:29:45.527Z,101230.41
2019-05-29T21:32:15.233Z,101229.13
2019-05-29T21:34:46.108Z,101236.05
2019-05-29T21:37:15.758Z,101232.81
2019-05-29T21:39:46.537Z,101232.55
2019-05-29T21:42:16.946Z,101226.54
2019-05-29T21:44:47.084Z,101233.23
2019-05-29T21:47:16.768Z,101223.07
2019-05-29T21:49:47.464Z,101223.52
2019-05-29T21:52:17.154Z,101227.22
2019-05-29T21:54:47.682Z,101232.06
2019-05-29T21:57:17.299Z,101233.91
2019-05-29T21:59:47.994Z,101223.27
2019-05-29T22:02:17.756Z,101236.44
2019-05-29T22:04:48.554Z,101239.19
2019-05-29T22:07:18.303Z,101236.41
2019-05-29T22:09:47.952Z,101236.16
2019-05-29T22:12:17.752Z,101234.28
2019-05-29T22:14:47.244Z,101236.20
2019-05-29T22:17:16.698Z,101234.09
2019-05-29T22:19:46.446Z,101238.55
2019-05-29T22:22:15.947Z,101239.20
2019-05-29T22:25:07.345Z,101238.70
2019-05-29T22:27:37.771Z,101240.72
2019-05-29T22:30:08.143Z,101239.95
2019-05-29T22:32:37.727Z,101235.84
2019-05-29T22:35:08.591Z,101237.27
2019-05-29T22:37:38.120Z,101243.67
2019-05-29T22:40:08.411Z,101236.00
2019-05-29T22:42:37.947Z,101242.16
2019-05-29T22:45:08.131Z,101239.11
2019-05-29T22:47:37.606Z,101246.61
2019-05-29T22:50:08.020Z,101239.17
2019-05-29T22:52:37.557Z,101241.16
2019-05-29T22:55:07.883Z,101246.64
2019-05-29T22:57:37.360Z,101246.11
2019-05-29T23:00:10.357Z,101245.45
2019-05-29T23:02:39.899Z,101240.77
2019-05-29T23:05:09.510Z,101242.92
2019-05-29T23:07:38.993Z,101242.03
2019-05-29T23:10:11.538Z,101240.00
2019-05-29T23:12:41.111Z,101234.38
2019-05-29T23:15:11.340Z,101228.78
2019-05-29T23:17:40.985Z,101236.45
2019-05-29T23:20:10.903Z,101242.70
2019-05-29T23:22:40.389Z,101244.01
2019-05-29T23:25:11.199Z,101243.59
2019-05-29T23:27:40.729Z,101248.14
2019-05-29T23:30:12.213Z,101244.75
2019-05-29T23:32:41.762Z,101239.64
2019-05-29T23:35:11.433Z,101240.84
2019-05-29T23:37:41.077Z,101236.77
2019-05-29T23:40:11.075Z,101248.47
2019-05-29T23:42:40.579Z,101243.84
2019-05-29T23:45:11.087Z,101243.59
2019-05-29T23:47:40.722Z,101251.64
2019-05-29T23:50:10.715Z,101249.45
2019-05-29T23:52:40.255Z,101250.26
2019-05-29T23:55:10.283Z,101245.80
2019-05-29T23:57:39.763Z,101240.77
